createdAt,value
2023-04-30T00:02:16.049Z,25.33
2023-04-30T00:04:45.179Z,28.50
2023-04-30T00:07:13.274Z,25.25
2023-04-30T00:09:43.963Z,25.48
2023-04-30T00:12:11.968Z,24.50
2023-04-30T00:14:40.702Z,24.73
2023-04-30T00:17:08.656Z,26.88
2023-04-30T00:19:37.933Z,28.88
2023-04-30T00:22:06.447Z,29.75
2023-04-30T00:24:35.747Z,26.48
2023-04-30T00:27:04.333Z,26.90
2023-04-30T00:29:35.256Z,24.77
2023-04-30T00:32:03.546Z,27.35
2023-04-30T00:34:32.239Z,21.05
2023-04-30T00:37:00.143Z,27.00
2023-04-30T00:39:28.076Z,25.48
2023-04-30T00:41:57.216Z,26.60
2023-04-30T00:44:25.493Z,28.38
2023-04-30T00:46:53.565Z,26.30
2023-04-30T00:49:21.564Z,29.52
2023-04-30T00:51:49.896Z,25.98
2023-04-30T00:54:25.140Z,24.85
2023-04-30T00:56:57.191Z,28.90
2023-04-30T00:59:25.483Z,27.73
2023-04-30T01:01:53.830Z,26.77
2023-04-30T01:04:21.985Z,25.58
2023-04-30T01:06:50.200Z,27.23
2023-04-30T01:09:19.216Z,24.92
2023-04-30T01:12:15.538Z,25.77
2023-04-30T01:15:11.113Z,28.88
2023-04-30T01:17:45.602Z,24.58
2023-04-30T01:20:14.695Z,29.33
2023-04-30T01:22:58.091Z,26.10
2023-04-30T01:25:51.274Z,30.33
2023-04-30T01:28:22.003Z,30.70
2023-04-30T01:30:50.083Z,25.27
2023-04-30T01:33:18.045Z,29.00
2023-04-30T01:36:14.144Z,29.33
2023-04-30T01:39:35.483Z,27.35
2023-04-30T01:42:07.105Z,28.98
2023-04-30T01:45:03.844Z,23.67
2023-04-30T01:47:51.527Z,29.25
2023-04-30T01:50:37.795Z,29.40
2023-04-30T01:53:07.634Z,23.92
2023-04-30T01:55:44.020Z,24.20
2023-04-30T01:58:14.178Z,24.95
2023-04-30T02:00:42.116Z,24.98
2023-04-30T02:03:10.330Z,29.00
2023-04-30T02:05:38.833Z,26.67
2023-04-30T02:08:08.375Z,22.70
2023-04-30T02:10:37.650Z,27.05
2023-04-30T02:13:05.632Z,27.90
2023-04-30T02:15:35.423Z,27.17
2023-04-30T02:18:04.724Z,24.98
2023-04-30T02:20:34.349Z,26.48
2023-04-30T02:23:02.414Z,29.77
2023-04-30T02:25:30.539Z,25.52
2023-04-30T02:27:59.430Z,28.23
2023-04-30T02:30:27.305Z,30.63
2023-04-30T02:32:55.235Z,28.60
2023-04-30T02:35:23.311Z,29.55
2023-04-30T02:37:51.577Z,34.97
2023-04-30T02:40:19.511Z,32.80
2023-04-30T02:42:48.446Z,29.13
2023-04-30T02:45:17.292Z,32.15
2023-04-30T02:47:45.295Z,33.38
2023-04-30T02:50:14.311Z,30.20
2023-04-30T02:52:43.945Z,34.13
2023-04-30T02:55:11.957Z,32.60
2023-04-30T02:57:39.961Z,32.20
2023-04-30T03:00:08.746Z,35.95
2023-04-30T03:02:37.837Z,35.40
2023-04-30T03:05:06.358Z,32.75
2023-04-30T03:07:34.596Z,34.40
2023-04-30T03:10:02.857Z,33.70
2023-04-30T03:12:31.473Z,35.88
2023-04-30T03:14:59.299Z,35.92
2023-04-30T03:17:27.465Z,35.10
2023-04-30T03:19:55.880Z,33.15
2023-04-30T03:22:26.807Z,31.20
2023-04-30T03:24:54.834Z,33.10
2023-04-30T03:27:22.966Z,32.58
2023-04-30T03:29:50.897Z,30.63
2023-04-30T03:32:18.827Z,29.08
2023-04-30T03:34:47.065Z,26.50
2023-04-30T03:37:16.378Z,31.95
2023-04-30T03:39:44.328Z,28.17
2023-04-30T03:42:13.453Z,28.38
2023-04-30T03:44:43.380Z,31.02
2023-04-30T03:47:44.236Z,29.60
2023-04-30T03:50:20.563Z,23.65
2023-04-30T03:52:49.240Z,27.23
2023-04-30T03:55:17.490Z,22.92
2023-04-30T03:57:45.900Z,22.23
2023-04-30T04:00:14.646Z,25.52
2023-04-30T04:02:45.030Z,25.73
2023-04-30T04:05:13.059Z,25.60
2023-04-30T04:07:41.435Z,25.13
2023-04-30T04:10:11.505Z,21.48
2023-04-30T04:12:39.499Z,19.60
2023-04-30T04:15:09.115Z,25.23
2023-04-30T04:17:37.466Z,21.38
2023-04-30T04:20:06.690Z,20.27
2023-04-30T04:22:37.791Z,20.17
2023-04-30T04:25:14.085Z,17.20
2023-04-30T04:27:44.605Z,16.52
2023-04-30T04:30:13.975Z,15.27
2023-04-30T04:32:48.543Z,13.73
2023-04-30T04:35:23.545Z,15.07
2023-04-30T04:37:53.054Z,15.15
2023-04-30T04:40:21.013Z,16.20
2023-04-30T04:42:55.785Z,16.08
2023-04-30T04:45:24.138Z,12.48
2023-04-30T04:47:52.792Z,12.27
2023-04-30T04:50:21.911Z,12.13
2023-04-30T04:52:50.963Z,9.77
2023-04-30T04:55:19.254Z,9.55
2023-04-30T04:57:48.173Z,11.50
2023-04-30T05:00:18.369Z,10.50
2023-04-30T05:02:49.978Z,9.07
2023-04-30T05:05:18.034Z,8.65
2023-04-30T05:07:46.209Z,8.60
2023-04-30T05:10:14.320Z,11.30
2023-04-30T05:12:42.250Z,9.55
2023-04-30T05:15:10.482Z,8.82
2023-04-30T05:17:38.526Z,11.05
2023-04-30T05:20:10.162Z,10.50
2023-04-30T05:22:38.311Z,8.40
2023-04-30T05:25:07.023Z,8.00
2023-04-30T05:27:36.937Z,9.40
2023-04-30T05:30:06.220Z,10.18
2023-04-30T05:32:34.728Z,11.07
2023-04-30T05:35:09.972Z,12.70
2023-04-30T05:37:38.669Z,10.40
2023-04-30T05:40:10.363Z,11.63
2023-04-30T05:42:41.142Z,9.48
2023-04-30T05:45:09.765Z,8.60
2023-04-30T05:47:37.836Z,7.63
2023-04-30T05:50:06.659Z,8.52
2023-04-30T05:52:35.732Z,7.40
2023-04-30T05:55:06.345Z,7.05
2023-04-30T05:57:36.332Z,6.85
2023-04-30T06:00:07.970Z,6.00
2023-04-30T06:02:43.338Z,8.68
2023-04-30T06:05:26.647Z,6.32
2023-04-30T06:07:54.698Z,5.80
2023-04-30T06:10:27.560Z,6.45
2023-04-30T06:12:55.591Z,6.75
2023-04-30T06:15:28.701Z,7.97
2023-04-30T06:17:56.656Z,7.47
2023-04-30T06:20:27.481Z,8.57
2023-04-30T06:23:05.316Z,9.15
2023-04-30T06:25:37.853Z,11.65
2023-04-30T06:28:08.570Z,8.55
2023-04-30T06:30:39.652Z,7.45
2023-04-30T06:33:08.458Z,9.68
2023-04-30T06:35:36.721Z,9.98
2023-04-30T06:38:06.812Z,7.97
2023-04-30T06:40:38.160Z,8.30
2023-04-30T06:43:06.613Z,9.02
2023-04-30T06:45:36.094Z,8.52
2023-04-30T06:48:04.480Z,7.55
2023-04-30T06:50:33.409Z,14.05
2023-04-30T06:53:01.520Z,8.98
2023-04-30T06:55:35.066Z,8.55
2023-04-30T06:58:10.109Z,8.68
2023-04-30T07:00:38.038Z,9.48
2023-04-30T07:03:06.827Z,7.03
2023-04-30T07:05:36.593Z,7.00
2023-04-30T07:08:07.646Z,8.30
2023-04-30T07:10:36.881Z,9.77
2023-04-30T07:13:05.764Z,7.50
2023-04-30T07:15:35.541Z,6.47
2023-04-30T07:18:05.114Z,6.13
2023-04-30T07:20:34.775Z,6.82
2023-04-30T07:23:05.184Z,6.78
2023-04-30T07:25:35.437Z,8.48
2023-04-30T07:28:05.944Z,6.57
2023-04-30T07:30:36.129Z,7.53
2023-04-30T07:33:04.912Z,5.90
2023-04-30T07:35:33.322Z,7.90
2023-04-30T07:38:01.468Z,5.72
2023-04-30T07:40:36.347Z,7.20
2023-04-30T07:43:05.262Z,5.80
2023-04-30T07:45:34.787Z,6.45
2023-04-30T07:48:05.632Z,4.93
2023-04-30T07:50:43.935Z,6.97
2023-04-30T07:53:12.764Z,6.25
2023-04-30T07:55:42.212Z,6.60
2023-04-30T07:58:10.837Z,4.95
2023-04-30T08:00:39.171Z,5.45
2023-04-30T08:03:08.266Z,5.85
2023-04-30T08:06:40.307Z,6.05
2023-04-30T08:09:10.708Z,4.85
2023-04-30T08:11:38.678Z,6.68
2023-04-30T08:14:07.340Z,6.40
2023-04-30T08:16:37.027Z,5.10
2023-04-30T08:19:08.807Z,9.55
2023-04-30T08:21:38.044Z,4.78
2023-04-30T08:24:06.783Z,5.25
2023-04-30T08:26:35.894Z,4.88
2023-04-30T08:29:08.533Z,7.38
2023-04-30T08:31:38.812Z,4.30
2023-04-30T08:34:07.328Z,5.05
2023-04-30T08:36:35.745Z,5.97
2023-04-30T08:39:05.137Z,5.38
2023-04-30T08:41:38.424Z,5.25
2023-04-30T08:44:08.308Z,4.10
2023-04-30T08:46:39.951Z,7.40
2023-04-30T08:49:08.364Z,10.50
2023-04-30T08:51:37.092Z,7.38
2023-04-30T08:54:06.960Z,5.57
2023-04-30T08:56:37.369Z,6.85
2023-04-30T08:59:06.350Z,5.55
2023-04-30T09:01:41.619Z,4.78
2023-04-30T09:04:10.996Z,7.28
2023-04-30T09:06:40.338Z,5.47
2023-04-30T09:09:17.394Z,10.27
2023-04-30T09:11:50.023Z,6.45
2023-04-30T09:14:26.127Z,5.28
2023-04-30T09:19:30.385Z,7.75
2023-04-30T09:22:36.324Z,8.73
2023-04-30T09:25:08.624Z,6.07
2023-04-30T09:27:41.482Z,6.97
2023-04-30T09:30:13.936Z,8.60
2023-04-30T09:33:05.208Z,8.52
2023-04-30T09:35:47.498Z,6.38
2023-04-30T09:38:40.493Z,5.57
2023-04-30T09:41:21.184Z,6.30
2023-04-30T09:43:51.137Z,6.68
2023-04-30T09:46:21.837Z,7.15
2023-04-30T09:49:13.970Z,5.35
2023-04-30T09:52:01.120Z,5.05
2023-04-30T09:54:59.187Z,6.75
2023-04-30T09:57:36.583Z,5.88
2023-04-30T10:00:05.435Z,6.75
2023-04-30T10:02:37.301Z,7.63
2023-04-30T10:05:06.167Z,5.95
2023-04-30T10:07:58.463Z,8.75
2023-04-30T10:10:27.476Z,6.22
2023-04-30T10:13:08.346Z,7.50
2023-04-30T10:15:45.492Z,8.25
2023-04-30T10:18:24.052Z,5.72
2023-04-30T10:20:56.379Z,5.40
2023-04-30T10:23:56.287Z,7.90
2023-04-30T10:26:50.804Z,3.50
2023-04-30T10:29:24.288Z,5.57
2023-04-30T10:31:55.997Z,6.60
2023-04-30T10:34:44.024Z,5.03
2023-04-30T10:37:14.873Z,8.70
2023-04-30T10:39:51.458Z,5.30
2023-04-30T10:42:22.370Z,5.60
2023-04-30T10:44:52.073Z,6.13
2023-04-30T10:47:23.694Z,9.82
2023-04-30T10:50:07.073Z,4.85
2023-04-30T10:52:38.106Z,5.13
2023-04-30T10:55:33.465Z,6.13
2023-04-30T10:58:33.300Z,6.20
2023-04-30T11:01:15.644Z,5.65
2023-04-30T11:04:10.573Z,6.03
2023-04-30T11:06:56.280Z,6.43
2023-04-30T11:09:39.162Z,8.05
2023-04-30T11:12:11.591Z,4.40
2023-04-30T11:15:02.740Z,4.70
2023-04-30T11:17:43.784Z,4.63
2023-04-30T11:20:17.763Z,7.53
2023-04-30T11:23:11.307Z,5.40
2023-04-30T11:25:43.834Z,5.47
2023-04-30T11:28:21.371Z,4.40
2023-04-30T11:31:05.263Z,10.48
2023-04-30T11:33:34.060Z,6.05
2023-04-30T11:36:06.289Z,5.38
2023-04-30T11:39:00.340Z,7.93
2023-04-30T11:41:28.824Z,5.78
2023-04-30T11:43:57.835Z,4.75
2023-04-30T11:46:26.563Z,5.18
2023-04-30T11:48:54.504Z,4.60
2023-04-30T11:51:27.084Z,10.25
2023-04-30T11:53:58.204Z,6.10
2023-04-30T11:56:27.818Z,4.47
2023-04-30T11:58:59.662Z,4.90
2023-04-30T12:01:28.984Z,6.93
2023-04-30T12:03:59.997Z,5.97
2023-04-30T12:06:29.186Z,5.18
2023-04-30T12:08:59.254Z,5.03
2023-04-30T12:11:35.254Z,4.60
2023-04-30T12:14:13.153Z,3.85
2023-04-30T12:16:54.354Z,4.03
2023-04-30T12:19:25.572Z,5.30
2023-04-30T12:21:57.849Z,4.28
2023-04-30T12:24:28.965Z,4.55
2023-04-30T12:27:02.384Z,5.95
2023-04-30T12:29:31.727Z,3.95
2023-04-30T12:32:06.176Z,5.32
2023-04-30T12:34:42.166Z,6.03
2023-04-30T12:37:21.286Z,5.28
2023-04-30T12:39:50.811Z,4.47
2023-04-30T12:42:24.187Z,5.10
2023-04-30T12:44:52.367Z,6.97
2023-04-30T12:47:26.535Z,4.80
2023-04-30T12:49:57.299Z,6.68
2023-04-30T12:52:28.161Z,5.78
2023-04-30T12:55:21.615Z,5.40
2023-04-30T12:58:15.622Z,5.60
2023-04-30T13:00:50.863Z,5.57
2023-04-30T13:03:23.863Z,6.57
2023-04-30T13:05:58.838Z,6.82
2023-04-30T13:08:28.110Z,4.18
2023-04-30T13:10:56.330Z,4.10
2023-04-30T13:13:24.324Z,5.63
2023-04-30T13:15:55.636Z,4.05
2023-04-30T13:18:24.129Z,5.45
2023-04-30T13:20:53.646Z,4.63
2023-04-30T13:23:23.132Z,2.83
2023-04-30T13:25:55.416Z,4.00
2023-04-30T13:28:26.249Z,4.47
2023-04-30T13:30:56.679Z,2.67
2023-04-30T13:33:25.761Z,2.10
2023-04-30T13:35:54.061Z,2.70
2023-04-30T13:38:22.294Z,1.92
2023-04-30T13:40:51.547Z,1.88
2023-04-30T13:43:22.680Z,2.30
2023-04-30T13:45:51.448Z,3.40
2023-04-30T13:48:19.511Z,2.72
2023-04-30T13:50:48.155Z,3.00
2023-04-30T13:53:16.420Z,3.67
2023-04-30T13:55:46.314Z,2.30
2023-04-30T13:58:15.930Z,2.30
2023-04-30T14:00:45.267Z,3.00
2023-04-30T14:03:16.063Z,2.20
2023-04-30T14:05:44.585Z,4.22
2023-04-30T14:08:12.960Z,1.92
2023-04-30T14:11:05.470Z,2.78
2023-04-30T14:13:35.890Z,1.88
2023-04-30T14:16:05.480Z,2.90
2023-04-30T14:18:33.731Z,1.38
2023-04-30T14:21:01.691Z,2.03
2023-04-30T14:23:30.011Z,2.78
2023-04-30T14:25:58.137Z,1.30
2023-04-30T14:28:27.438Z,3.20
2023-04-30T14:30:57.720Z,2.33
2023-04-30T14:33:27.236Z,3.03
2023-04-30T14:35:55.594Z,1.58
2023-04-30T14:38:50.220Z,2.58
2023-04-30T14:41:21.556Z,1.63
2023-04-30T14:43:49.910Z,1.65
2023-04-30T14:46:22.436Z,3.00
2023-04-30T14:48:51.200Z,4.75
2023-04-30T14:51:19.285Z,2.63
2023-04-30T14:53:48.285Z,2.47
2023-04-30T14:56:16.301Z,1.80
2023-04-30T14:58:46.119Z,1.80
2023-04-30T15:01:15.578Z,1.30
2023-04-30T15:03:46.561Z,2.13
2023-04-30T15:06:17.286Z,1.38
2023-04-30T15:08:45.325Z,1.83
2023-04-30T15:11:13.420Z,1.92
2023-04-30T15:13:41.573Z,1.20
2023-04-30T15:16:13.483Z,1.90
2023-04-30T15:18:41.703Z,6.20
2023-04-30T15:21:10.825Z,1.52
2023-04-30T15:23:41.478Z,1.67
2023-04-30T15:26:11.353Z,2.20
2023-04-30T15:29:09.173Z,2.30
2023-04-30T15:31:38.384Z,5.03
2023-04-30T15:34:08.971Z,1.73
2023-04-30T15:36:49.825Z,1.88
2023-04-30T15:39:59.719Z,3.15
2023-04-30T15:42:31.083Z,1.48
2023-04-30T15:44:59.128Z,1.17
2023-04-30T15:47:27.548Z,3.25
2023-04-30T15:49:56.503Z,3.92
2023-04-30T15:52:51.252Z,2.13
2023-04-30T15:55:21.375Z,2.53
2023-04-30T15:57:53.244Z,1.98
2023-04-30T16:00:23.590Z,2.33
2023-04-30T16:02:51.724Z,2.43
2023-04-30T16:05:24.479Z,4.93
2023-04-30T16:07:53.809Z,2.85
2023-04-30T16:10:22.367Z,3.00
2023-04-30T16:12:51.513Z,2.47
2023-04-30T16:15:19.610Z,6.22
2023-04-30T16:17:48.850Z,6.00
2023-04-30T16:20:16.886Z,6.70
2023-04-30T16:22:45.265Z,4.10
2023-04-30T16:25:16.539Z,3.25
2023-04-30T16:27:45.756Z,2.47
2023-04-30T16:30:15.391Z,5.75
2023-04-30T16:32:46.197Z,2.45
2023-04-30T16:35:15.659Z,2.58
2023-04-30T16:37:45.515Z,2.38
2023-04-30T16:40:21.048Z,3.40
2023-04-30T16:42:50.193Z,4.03
2023-04-30T16:45:19.381Z,4.20
2023-04-30T16:47:48.968Z,2.15
2023-04-30T16:50:17.151Z,2.92
2023-04-30T16:52:45.299Z,2.83
2023-04-30T16:55:13.930Z,2.00
2023-04-30T16:57:43.346Z,3.53
2023-04-30T17:00:14.338Z,3.05
2023-04-30T17:02:46.021Z,4.00
2023-04-30T17:05:16.119Z,2.42
2023-04-30T17:07:47.667Z,4.93
2023-04-30T17:10:22.674Z,1.38
2023-04-30T17:12:56.157Z,1.85
2023-04-30T17:15:27.674Z,2.67
2023-04-30T17:17:58.592Z,2.30
2023-04-30T17:20:31.813Z,3.63
2023-04-30T17:23:06.911Z,7.50
2023-04-30T17:25:38.435Z,3.08
2023-04-30T17:28:08.531Z,5.00
2023-04-30T17:30:42.021Z,2.25
2023-04-30T17:33:11.723Z,2.30
2023-04-30T17:35:47.885Z,6.63
2023-04-30T17:38:36.866Z,3.55
2023-04-30T17:41:05.365Z,4.05
2023-04-30T17:43:34.264Z,3.05
2023-04-30T17:46:04.077Z,2.83
2023-04-30T17:48:33.216Z,2.47
2023-04-30T17:51:06.786Z,2.83
2023-04-30T17:53:38.077Z,5.97
2023-04-30T17:56:13.088Z,5.20
2023-04-30T17:58:42.751Z,2.67
2023-04-30T18:01:13.813Z,3.03
2023-04-30T18:03:50.600Z,11.43
2023-04-30T18:06:19.409Z,2.25
2023-04-30T18:08:47.624Z,2.67
2023-04-30T18:11:20.884Z,4.00
2023-04-30T18:13:51.450Z,2.17
2023-04-30T18:16:22.017Z,4.28
2023-04-30T18:18:51.235Z,2.78
2023-04-30T18:21:19.301Z,2.47
2023-04-30T18:23:48.698Z,2.47
2023-04-30T18:26:22.724Z,3.83
2023-04-30T18:29:13.215Z,5.40
2023-04-30T18:31:43.600Z,3.58
2023-04-30T18:34:11.864Z,5.68
2023-04-30T18:36:43.296Z,4.50
2023-04-30T18:39:19.264Z,3.40
2023-04-30T18:41:51.661Z,3.38
2023-04-30T18:44:20.991Z,4.80
2023-04-30T18:46:49.051Z,3.15
2023-04-30T18:49:19.209Z,3.42
2023-04-30T18:51:47.636Z,3.05
2023-04-30T18:54:16.431Z,3.15
2023-04-30T18:56:47.308Z,3.17
2023-04-30T18:59:17.174Z,4.03
2023-04-30T19:01:45.913Z,3.00
2023-04-30T19:04:19.426Z,2.70
2023-04-30T19:06:52.745Z,3.63
2023-04-30T19:09:21.262Z,4.55
2023-04-30T19:12:10.786Z,4.63
2023-04-30T19:14:43.084Z,3.50
2023-04-30T19:17:15.125Z,4.55
2023-04-30T19:19:56.510Z,4.13
2023-04-30T19:22:27.391Z,2.78
2023-04-30T19:24:55.791Z,7.18
2023-04-30T19:27:27.827Z,3.88
2023-04-30T19:30:01.783Z,5.40
2023-04-30T19:32:41.775Z,3.97
2023-04-30T19:35:11.333Z,4.47
2023-04-30T19:37:43.186Z,8.43
2023-04-30T19:40:12.253Z,6.13
2023-04-30T19:42:40.775Z,3.60
2023-04-30T19:45:13.301Z,6.10
2023-04-30T19:47:41.345Z,4.15
2023-04-30T19:50:09.870Z,5.15
2023-04-30T19:52:38.828Z,4.78
2023-04-30T19:55:09.781Z,3.20
2023-04-30T19:57:39.273Z,6.82
2023-04-30T20:00:30.202Z,2.70
2023-04-30T20:03:05.869Z,3.75
2023-04-30T20:05:35.174Z,3.83
2023-04-30T20:08:04.411Z,5.40
2023-04-30T20:10:36.334Z,3.00
2023-04-30T20:13:05.172Z,4.97
2023-04-30T20:15:33.710Z,6.65
2023-04-30T20:18:02.641Z,3.33
2023-04-30T20:20:31.087Z,4.43
2023-04-30T20:23:00.192Z,4.03
2023-04-30T20:25:31.313Z,3.83
2023-04-30T20:28:01.243Z,6.22
2023-04-30T20:30:32.944Z,7.13
2023-04-30T20:33:02.345Z,6.55
2023-04-30T20:35:32.157Z,5.65
2023-04-30T20:38:01.551Z,8.20
2023-04-30T20:40:34.175Z,5.45
2023-04-30T20:43:02.340Z,5.95
2023-04-30T20:45:30.965Z,4.15
2023-04-30T20:47:59.706Z,4.68
2023-04-30T20:50:28.932Z,4.90
2023-04-30T20:52:57.516Z,4.70
2023-04-30T20:55:28.429Z,9.88
2023-04-30T20:57:56.424Z,8.77
2023-04-30T21:00:27.811Z,4.88
2023-04-30T21:02:59.776Z,4.43
2023-04-30T21:05:28.724Z,9.85
2023-04-30T21:08:01.410Z,5.57
2023-04-30T21:10:36.967Z,5.97
2023-04-30T21:13:11.516Z,6.30
2023-04-30T21:15:40.701Z,4.13
2023-04-30T21:18:09.444Z,5.40
2023-04-30T21:20:37.556Z,5.38
2023-04-30T21:23:05.561Z,7.65
2023-04-30T21:25:40.170Z,4.55
2023-04-30T21:28:08.348Z,3.50
2023-04-30T21:30:37.257Z,3.88
2023-04-30T21:33:05.764Z,4.63
2023-04-30T21:35:35.140Z,3.25
2023-04-30T21:38:04.089Z,3.97
2023-04-30T21:40:35.653Z,2.88
2023-04-30T21:43:04.821Z,6.00
2023-04-30T21:45:35.047Z,4.13
2023-04-30T21:48:03.369Z,3.30
2023-04-30T21:50:34.659Z,2.40
2023-04-30T21:53:05.858Z,2.97
2023-04-30T21:55:34.818Z,2.08
2023-04-30T21:58:02.820Z,3.55
2023-04-30T22:00:30.811Z,3.38
2023-04-30T22:02:59.210Z,2.45
2023-04-30T22:05:27.520Z,4.32
2023-04-30T22:07:55.665Z,3.35
2023-04-30T22:10:24.093Z,4.07
2023-04-30T22:12:52.713Z,4.40
2023-04-30T22:15:27.324Z,5.60
2023-04-30T22:17:58.968Z,4.07
2023-04-30T22:20:27.233Z,4.90
2023-04-30T22:22:56.063Z,6.25
2023-04-30T22:25:26.257Z,4.68
2023-04-30T22:27:56.975Z,5.60
2023-04-30T22:30:30.581Z,6.40
2023-04-30T22:33:14.271Z,5.32
2023-04-30T22:35:43.677Z,6.68
2023-04-30T22:38:12.806Z,8.65
2023-04-30T22:40:40.751Z,6.68
2023-04-30T22:43:09.528Z,6.32
2023-04-30T22:45:40.606Z,6.00
2023-04-30T22:48:12.417Z,6.70
2023-04-30T22:50:40.503Z,6.32
2023-04-30T22:53:10.848Z,4.15
2023-04-30T22:55:39.820Z,9.93
2023-04-30T22:58:09.055Z,10.02
2023-04-30T23:00:57.594Z,5.85
2023-04-30T23:03:26.380Z,6.95
2023-04-30T23:05:55.121Z,5.15
2023-04-30T23:08:23.120Z,5.43
2023-04-30T23:10:53.206Z,7.35
2023-04-30T23:13:21.176Z,7.22
2023-04-30T23:15:49.858Z,6.80
2023-04-30T23:18:19.755Z,6.30
2023-04-30T23:20:47.812Z,6.85
2023-04-30T23:23:15.841Z,4.97
2023-04-30T23:25:44.125Z,4.82
2023-04-30T23:28:12.141Z,3.78
2023-04-30T23:30:40.234Z,8.25
2023-04-30T23:33:08.390Z,7.25
2023-04-30T23:35:36.532Z,6.40
2023-04-30T23:38:05.734Z,5.85
2023-04-30T23:40:34.293Z,9.00
2023-04-30T23:43:02.193Z,6.32
2023-04-30T23:45:30.407Z,8.02
2023-04-30T23:47:58.385Z,5.78
2023-04-30T23:50:26.646Z,7.03
2023-04-30T23:52:54.698Z,7.18
2023-04-30T23:55:23.814Z,5.63
2023-04-30T23:57:51.982Z,7.30
